createdAt,value
2019-04-21T00:00:18.943Z,6.68
2019-04-21T00:01:16.671Z,6.61
2019-04-21T00:02:25.376Z,6.57
2019-04-21T00:03:25.827Z,6.64
2019-04-21T00:04:30.067Z,6.60
2019-04-21T00:05:30.701Z,6.61
2019-04-21T00:06:36.877Z,6.53
2019-04-21T00:07:36.222Z,6.43
2019-04-21T00:08:38.948Z,6.56
2019-04-21T00:09:44.263Z,6.50
2019-04-21T00:10:41.896Z,6.52
2019-04-21T00:11:57.284Z,6.43
2019-04-21T00:12:35.870Z,6.38
2019-04-21T00:13:32.603Z,6.35
2019-04-21T00:14:30.345Z,6.37
2019-04-21T00:15:28.700Z,6.46
2019-04-21T00:16:25.587Z,6.34
2019-04-21T00:17:19.651Z,6.42
2019-04-21T00:18:17.438Z,6.42
2019-04-21T00:19:20.849Z,6.42
2019-04-21T00:20:26.952Z,6.40
2019-04-21T00:21:26.613Z,6.46
2019-04-21T00:22:31.534Z,6.43
2019-04-21T00:23:34.306Z,6.45
2019-04-21T00:24:28.828Z,6.42
2019-04-21T00:25:32.283Z,6.40
2019-04-21T00:27:36.814Z,6.32
2019-04-21T00:28:42.584Z,6.34
2019-04-21T00:29:38.628Z,6.31
2019-04-21T00:30:39.884Z,6.24
2019-04-21T00:31:33.900Z,6.18
2019-04-21T00:32:27.923Z,6.16
2019-04-21T00:33:23.239Z,6.18
2019-04-21T00:34:17.648Z,6.27
2019-04-21T00:35:21.074Z,6.15
2019-04-21T00:36:24.249Z,6.15
2019-04-21T00:37:28.155Z,6.12
2019-04-21T00:38:42.675Z,6.08
2019-04-21T00:39:43.630Z,6.06
2019-04-21T00:40:42.100Z,6.03
2019-04-21T00:41:38.044Z,5.94
2019-04-21T00:42:37.642Z,5.98
2019-04-21T00:43:36.386Z,5.95
2019-04-21T00:44:27.059Z,5.91
2019-04-21T00:45:31.316Z,5.97
2019-04-21T00:46:31.293Z,5.98
2019-04-21T00:47:52.641Z,5.94
2019-04-21T00:48:41.312Z,5.94
2019-04-21T00:49:31.984Z,5.95
2019-04-21T00:50:40.796Z,5.91
2019-04-21T00:51:49.881Z,5.90
2019-04-21T00:53:47.806Z,5.84
2019-04-21T00:54:44.417Z,5.82
2019-04-21T00:56:46.706Z,5.75
2019-04-21T00:57:45.564Z,5.75
2019-04-21T00:58:41.068Z,5.75
2019-04-21T00:59:39.991Z,5.69
2019-04-21T01:00:38.497Z,5.69
2019-04-21T01:01:39.385Z,5.69
2019-04-21T01:02:44.460Z,5.73
2019-04-21T01:03:43.263Z,5.69
2019-04-21T01:04:42.859Z,5.61
2019-04-21T01:05:42.597Z,5.70
2019-04-21T01:06:42.766Z,5.75
2019-04-21T01:07:39.293Z,5.69
2019-04-21T01:08:36.960Z,5.55
2019-04-21T01:09:32.744Z,5.66
2019-04-21T01:10:28.635Z,5.61
2019-04-21T01:11:38.907Z,5.57
2019-04-21T01:12:37.939Z,5.65
2019-04-21T01:13:41.660Z,5.52
2019-04-21T01:14:41.888Z,5.54
2019-04-21T01:15:46.877Z,5.54
2019-04-21T01:16:39.311Z,5.43
2019-04-21T01:17:44.654Z,5.44
2019-04-21T01:18:41.000Z,5.44
2019-04-21T01:19:33.441Z,5.36
2019-04-21T01:20:17.948Z,5.36
2019-04-21T01:21:15.479Z,5.41
2019-04-21T01:22:15.479Z,5.40
2019-04-21T01:23:16.634Z,5.44
2019-04-21T01:24:21.659Z,5.43
2019-04-21T01:25:25.847Z,5.36
2019-04-21T01:26:30.767Z,5.37
2019-04-21T01:27:39.757Z,5.36
2019-04-21T01:28:35.932Z,5.36
2019-04-21T01:29:44.064Z,5.36
2019-04-21T01:30:34.549Z,5.32
2019-04-21T01:31:32.901Z,5.25
2019-04-21T01:32:35.713Z,5.25
2019-04-21T01:33:39.808Z,5.24
2019-04-21T01:34:39.133Z,5.22
2019-04-21T01:35:40.201Z,5.29
2019-04-21T01:36:34.650Z,5.18
2019-04-21T01:37:44.049Z,5.16
2019-04-21T01:38:40.133Z,5.16
2019-04-21T01:39:42.048Z,5.16
2019-04-21T01:40:43.131Z,5.12
2019-04-21T01:41:42.826Z,5.14
2019-04-21T01:42:32.323Z,5.14
2019-04-21T01:43:38.356Z,5.03
2019-04-21T01:44:56.282Z,5.12
2019-04-21T01:45:35.500Z,5.07
2019-04-21T01:46:34.963Z,4.98
2019-04-21T01:47:31.430Z,4.97
2019-04-21T01:48:34.215Z,5.04
2019-04-21T01:49:28.289Z,5.00
2019-04-21T01:50:36.449Z,4.97
2019-04-21T01:51:38.428Z,4.94
2019-04-21T01:52:47.350Z,4.93
2019-04-21T01:53:38.544Z,4.91
2019-04-21T01:54:41.755Z,4.91
2019-04-21T01:55:35.663Z,4.86
2019-04-21T01:56:34.271Z,4.86
2019-04-21T01:57:34.688Z,4.89
2019-04-21T01:58:28.885Z,4.91
2019-04-21T01:59:30.630Z,4.96
2019-04-21T02:00:32.830Z,4.93
2019-04-21T02:01:33.294Z,4.78
2019-04-21T02:02:35.975Z,4.89
2019-04-21T02:04:41.735Z,4.79
2019-04-21T02:05:39.339Z,4.77
2019-04-21T02:06:34.837Z,4.79
2019-04-21T02:07:40.720Z,4.78
2019-04-21T02:08:31.321Z,4.77
2019-04-21T02:09:38.399Z,4.74
2019-04-21T02:10:39.976Z,4.71
2019-04-21T02:11:37.301Z,4.72
2019-04-21T02:12:43.326Z,4.72
2019-04-21T02:13:36.877Z,4.72
2019-04-21T02:14:41.472Z,4.75
2019-04-21T02:15:56.089Z,4.63
2019-04-21T02:16:34.544Z,4.77
2019-04-21T02:17:38.804Z,4.67
2019-04-21T02:18:37.394Z,4.74
2019-04-21T02:19:31.218Z,4.71
2019-04-21T02:20:26.846Z,4.71
2019-04-21T02:21:31.784Z,4.66
2019-04-21T02:22:46.095Z,4.63
2019-04-21T02:23:46.500Z,4.64
2019-04-21T02:24:42.054Z,4.66
2019-04-21T02:25:38.429Z,4.54
2019-04-21T02:26:49.047Z,4.59
2019-04-21T02:27:36.598Z,4.59
2019-04-21T02:28:42.443Z,4.56
2019-04-21T02:29:40.892Z,4.49
2019-04-21T02:30:55.261Z,4.48
2019-04-21T02:31:49.090Z,4.48
2019-04-21T02:32:55.673Z,4.41
2019-04-21T02:34:00.224Z,4.49
2019-04-21T02:36:15.089Z,4.48
2019-04-21T02:36:54.820Z,4.45
2019-04-21T02:37:53.568Z,4.51
2019-04-21T02:39:08.183Z,4.53
2019-04-21T02:39:51.340Z,4.48
2019-04-21T02:40:47.564Z,4.49
2019-04-21T02:41:51.583Z,4.38
2019-04-21T02:45:00.485Z,4.31
2019-04-21T02:45:46.770Z,4.36
2019-04-21T02:48:55.887Z,4.30
2019-04-21T02:49:56.985Z,4.31
2019-04-21T02:50:45.170Z,4.28
2019-04-21T02:51:54.474Z,4.20
2019-04-21T02:54:28.700Z,4.21
2019-04-21T02:55:43.712Z,4.20
2019-04-21T02:58:51.211Z,4.21
2019-04-21T02:59:55.966Z,4.16
2019-04-21T03:00:42.787Z,4.17
2019-04-21T03:01:54.463Z,4.24
2019-04-21T03:02:46.951Z,4.26
2019-04-21T03:03:50.603Z,4.21
2019-04-21T03:05:07.659Z,4.24
2019-04-21T03:05:51.149Z,4.18
2019-04-21T03:07:09.384Z,4.21
2019-04-21T03:07:55.315Z,4.20
2019-04-21T03:08:56.678Z,4.23
2019-04-21T03:11:48.623Z,4.18
2019-04-21T03:13:47.317Z,4.08
2019-04-21T03:14:56.506Z,4.03
2019-04-21T03:15:47.211Z,4.10
2019-04-21T03:16:56.770Z,4.08
2019-04-21T03:18:52.397Z,4.17
2019-04-21T03:20:49.670Z,4.20
2019-04-21T03:21:48.612Z,4.17
2019-04-21T03:22:46.293Z,4.20
2019-04-21T03:23:56.283Z,4.18
2019-04-21T03:25:22.810Z,4.18
2019-04-21T03:27:01.020Z,4.06
2019-04-21T03:28:43.925Z,4.16
2019-04-21T03:29:54.352Z,4.08
2019-04-21T03:31:12.154Z,3.98
2019-04-21T03:35:34.010Z,3.94
2019-04-21T03:37:48.019Z,3.90
2019-04-21T03:38:47.338Z,3.91
2019-04-21T03:40:39.968Z,3.94
2019-04-21T03:41:52.540Z,3.85
2019-04-21T03:43:43.874Z,3.80
2019-04-21T03:44:45.664Z,3.82
2019-04-21T03:46:47.300Z,3.87
2019-04-21T03:47:50.075Z,3.90
2019-04-21T03:48:54.009Z,3.90
2019-04-21T03:49:54.539Z,3.90
2019-04-21T03:50:41.156Z,3.85
2019-04-21T03:51:47.534Z,3.80
2019-04-21T03:52:53.383Z,3.78
2019-04-21T03:54:58.821Z,3.81
2019-04-21T03:58:07.059Z,3.85
2019-04-21T03:58:55.903Z,3.84
2019-04-21T03:59:49.588Z,3.87
2019-04-21T04:01:48.637Z,3.82
2019-04-21T04:04:44.128Z,3.88
2019-04-21T04:05:57.216Z,3.81
2019-04-21T04:10:51.365Z,3.81
2019-04-21T04:12:48.394Z,3.81
2019-04-21T04:14:10.071Z,3.80
2019-04-21T04:14:44.415Z,3.87
2019-04-21T04:15:45.655Z,3.88
2019-04-21T04:17:04.826Z,3.78
2019-04-21T04:17:40.477Z,3.81
2019-04-21T04:18:53.276Z,3.76
2019-04-21T04:21:04.468Z,3.81
2019-04-21T04:21:51.944Z,3.85
2019-04-21T04:22:49.677Z,3.84
2019-04-21T04:23:58.169Z,3.81
2019-04-21T04:24:49.873Z,3.92
2019-04-21T04:25:49.346Z,3.91
2019-04-21T04:26:45.490Z,3.84
2019-04-21T04:27:59.533Z,3.87
2019-04-21T04:29:06.275Z,3.87
2019-04-21T04:29:39.688Z,3.92
2019-04-21T04:30:47.619Z,3.96
2019-04-21T04:32:07.995Z,4.00
2019-04-21T04:32:42.365Z,4.02
2019-04-21T04:33:58.092Z,4.12
2019-04-21T04:34:49.933Z,4.20
2019-04-21T04:36:58.464Z,4.26
2019-04-21T04:37:45.026Z,4.30
2019-04-21T04:38:48.301Z,4.42
2019-04-21T04:40:48.384Z,4.53
2019-04-21T04:41:53.123Z,4.60
2019-04-21T04:42:45.837Z,4.79
2019-04-21T04:43:44.610Z,4.79
2019-04-21T04:44:59.735Z,4.78
2019-04-21T04:47:01.967Z,5.01
2019-04-21T04:47:59.783Z,5.03
2019-04-21T04:48:59.410Z,5.06
2019-04-21T04:52:02.648Z,5.44
2019-04-21T04:53:45.852Z,5.80
2019-04-21T04:56:54.051Z,5.95
2019-04-21T04:57:54.677Z,5.95
2019-04-21T05:01:08.063Z,5.97
2019-04-21T05:01:51.214Z,6.00
2019-04-21T05:02:40.342Z,6.11
2019-04-21T05:05:08.436Z,6.09
2019-04-21T05:05:48.982Z,6.11
2019-04-21T05:07:00.113Z,6.18
2019-04-21T05:07:52.098Z,6.15
2019-04-21T05:10:58.703Z,6.31
2019-04-21T05:13:53.200Z,6.50
2019-04-21T05:15:42.218Z,6.63
2019-04-21T05:16:46.319Z,6.56
2019-04-21T05:17:46.440Z,6.65
2019-04-21T05:18:55.941Z,6.67
2019-04-21T05:19:53.638Z,6.81
2019-04-21T05:20:50.644Z,6.91
2019-04-21T05:21:42.084Z,6.97
2019-04-21T05:22:39.509Z,6.93
2019-04-21T05:23:31.229Z,7.07
2019-04-21T05:24:36.095Z,7.08
2019-04-21T05:26:27.234Z,7.43
2019-04-21T05:27:29.476Z,7.62
2019-04-21T05:28:29.843Z,7.77
2019-04-21T05:29:29.661Z,7.78
2019-04-21T05:31:40.125Z,8.01
2019-04-21T05:32:39.868Z,8.21
2019-04-21T05:33:38.322Z,8.39
2019-04-21T05:34:39.399Z,8.74
2019-04-21T05:35:37.294Z,8.85
2019-04-21T05:36:36.062Z,9.04
2019-04-21T05:37:35.066Z,9.34
2019-04-21T05:38:33.350Z,9.85
2019-04-21T05:39:29.606Z,10.28
2019-04-21T05:40:26.378Z,10.78
2019-04-21T05:41:26.659Z,11.33
2019-04-21T05:42:30.488Z,11.89
2019-04-21T05:43:32.561Z,12.35
2019-04-21T05:44:41.331Z,13.02
2019-04-21T05:45:34.533Z,13.45
2019-04-21T05:46:46.585Z,13.85
2019-04-21T05:47:40.985Z,14.34
2019-04-21T05:48:37.833Z,14.78
2019-04-21T05:49:35.404Z,14.97
2019-04-21T05:50:32.294Z,15.27
2019-04-21T05:52:26.522Z,15.84
2019-04-21T05:54:03.546Z,16.13
2019-04-21T05:56:36.500Z,17.06
2019-04-21T05:57:33.357Z,17.22
2019-04-21T05:58:38.066Z,17.43
2019-04-21T05:59:40.016Z,17.56
2019-04-21T06:00:55.922Z,17.71
2019-04-21T06:01:37.812Z,17.75
2019-04-21T06:02:36.663Z,17.81
2019-04-21T06:04:46.929Z,18.23
2019-04-21T06:05:44.567Z,18.31
2019-04-21T06:06:39.806Z,18.39
2019-04-21T06:07:34.870Z,18.79
2019-04-21T06:08:38.928Z,18.88
2019-04-21T06:09:39.565Z,19.32
2019-04-21T06:10:45.849Z,19.50
2019-04-21T06:11:36.581Z,19.74
2019-04-21T06:12:35.934Z,20.04
2019-04-21T06:13:42.786Z,20.18
2019-04-21T06:14:39.293Z,20.36
2019-04-21T06:15:40.508Z,20.58
2019-04-21T06:16:46.364Z,20.93
2019-04-21T06:17:42.852Z,21.19
2019-04-21T06:18:44.495Z,21.40
2019-04-21T06:19:45.068Z,21.62
2019-04-21T06:20:35.592Z,21.96
2019-04-21T06:21:33.165Z,22.25
2019-04-21T06:22:28.967Z,22.31
2019-04-21T06:23:36.713Z,22.61
2019-04-21T06:24:43.833Z,22.73
2019-04-21T06:25:50.045Z,22.98
2019-04-21T06:26:56.274Z,23.15
2019-04-21T06:27:52.675Z,23.29
2019-04-21T06:28:41.510Z,23.48
2019-04-21T06:29:41.717Z,23.42
2019-04-21T06:30:45.497Z,23.33
2019-04-21T06:32:02.429Z,23.33
2019-04-21T06:33:41.711Z,23.73
2019-04-21T06:34:49.629Z,23.89
2019-04-21T06:35:57.090Z,24.00
2019-04-21T06:36:45.195Z,24.29
2019-04-21T06:38:49.477Z,24.82
2019-04-21T06:39:42.658Z,25.03
2019-04-21T06:40:43.876Z,25.28
2019-04-21T06:41:34.005Z,25.11
2019-04-21T06:42:33.728Z,25.00
2019-04-21T06:43:41.706Z,25.01
2019-04-21T06:44:38.871Z,25.18
2019-04-21T06:45:42.642Z,25.03
2019-04-21T06:46:34.993Z,24.74
2019-04-21T06:47:49.937Z,24.55
2019-04-21T06:48:40.570Z,24.28
2019-04-21T06:49:30.250Z,24.10
2019-04-21T06:50:44.164Z,24.00
2019-04-21T06:51:53.370Z,23.96
2019-04-21T06:52:51.976Z,23.89
2019-04-21T06:53:44.638Z,24.10
2019-04-21T06:55:32.370Z,24.41
2019-04-21T06:56:42.329Z,24.59
2019-04-21T06:58:40.020Z,25.14
2019-04-21T06:59:34.265Z,25.43
2019-04-21T07:00:30.495Z,25.81
2019-04-21T07:01:36.056Z,25.92
2019-04-21T07:02:43.704Z,25.93
2019-04-21T07:03:34.701Z,25.45
2019-04-21T07:04:37.058Z,25.55
2019-04-21T07:05:44.071Z,25.63
2019-04-21T07:06:45.609Z,26.03
2019-04-21T07:07:42.085Z,26.31
2019-04-21T07:09:02.903Z,26.45
2019-04-21T07:09:52.924Z,26.51
2019-04-21T07:10:32.447Z,26.68
2019-04-21T07:11:30.250Z,26.73
2019-04-21T07:12:34.316Z,27.05
2019-04-21T07:13:30.877Z,27.17
2019-04-21T07:14:31.945Z,27.60
2019-04-21T07:15:39.241Z,27.52
2019-04-21T07:16:41.560Z,27.73
2019-04-21T07:17:32.662Z,27.73
2019-04-21T07:18:41.534Z,27.90
2019-04-21T07:19:46.703Z,27.50
2019-04-21T07:20:36.266Z,27.17
2019-04-21T07:21:35.550Z,27.50
2019-04-21T07:22:37.127Z,27.70
2019-04-21T07:23:36.870Z,27.78
2019-04-21T07:24:36.823Z,27.93
2019-04-21T07:25:39.094Z,28.00
2019-04-21T07:26:38.661Z,28.27
2019-04-21T07:27:35.407Z,28.69
2019-04-21T07:28:38.920Z,29.02
2019-04-21T07:29:39.486Z,29.13
2019-04-21T07:30:37.964Z,29.54
2019-04-21T07:31:41.638Z,29.81
2019-04-21T07:32:33.458Z,30.21
2019-04-21T07:34:37.935Z,30.80
2019-04-21T07:35:31.893Z,31.02
2019-04-21T07:37:35.327Z,30.26
2019-04-21T07:38:33.200Z,30.46
2019-04-21T07:39:32.618Z,30.68
2019-04-21T07:40:27.473Z,30.83
2019-04-21T07:41:27.725Z,30.89
2019-04-21T07:42:29.295Z,31.12
2019-04-21T07:43:29.978Z,31.29
2019-04-21T07:44:30.507Z,31.37
2019-04-21T07:45:26.296Z,31.57
2019-04-21T07:46:25.706Z,31.67
2019-04-21T07:47:32.634Z,32.23
2019-04-21T07:48:36.185Z,32.41
2019-04-21T07:49:37.040Z,32.68
2019-04-21T07:50:35.202Z,32.90
2019-04-21T07:51:42.286Z,32.99
2019-04-21T07:52:35.016Z,32.26
2019-04-21T07:53:42.374Z,31.82
2019-04-21T07:54:37.391Z,31.87
2019-04-21T07:56:19.969Z,32.38
2019-04-21T07:57:31.569Z,32.65
2019-04-21T07:58:36.395Z,32.65
2019-04-21T07:59:48.487Z,32.60
2019-04-21T08:00:51.231Z,32.53
2019-04-21T08:01:30.785Z,32.88
2019-04-21T08:02:49.713Z,33.09
2019-04-21T08:03:36.865Z,33.51
2019-04-21T08:05:31.428Z,33.62
2019-04-21T08:06:38.654Z,33.54
2019-04-21T08:07:41.840Z,33.36
2019-04-21T08:08:29.179Z,33.26
2019-04-21T08:10:28.617Z,33.30
2019-04-21T08:11:28.441Z,33.39
2019-04-21T08:12:24.625Z,32.90
2019-04-21T08:13:40.055Z,32.97
2019-04-21T08:14:50.737Z,32.90
2019-04-21T08:15:33.924Z,32.60
2019-04-21T08:16:30.545Z,32.87
2019-04-21T08:17:30.269Z,32.79
2019-04-21T08:18:34.990Z,32.91
2019-04-21T08:19:31.038Z,32.60
2019-04-21T08:20:31.321Z,32.68
2019-04-21T08:22:32.174Z,33.35
2019-04-21T08:23:34.137Z,33.76
2019-04-21T08:24:35.192Z,33.62
2019-04-21T08:25:35.270Z,32.99
2019-04-21T08:26:39.711Z,32.45
2019-04-21T08:27:37.002Z,32.20
2019-04-21T08:28:35.101Z,31.91
2019-04-21T08:29:33.217Z,31.14
2019-04-21T08:30:32.222Z,30.53
2019-04-21T08:31:39.254Z,30.24
2019-04-21T08:32:46.235Z,30.17
2019-04-21T08:33:38.702Z,29.76
2019-04-21T08:34:35.919Z,29.55
2019-04-21T08:35:59.442Z,28.90
2019-04-21T08:36:47.739Z,28.12
2019-04-21T08:37:31.299Z,27.76
2019-04-21T08:38:34.390Z,27.35
2019-04-21T08:39:42.437Z,26.78
2019-04-21T08:40:39.333Z,26.38
2019-04-21T08:41:31.575Z,26.00
2019-04-21T08:42:30.493Z,25.82
2019-04-21T08:43:48.208Z,25.78
2019-04-21T08:44:34.839Z,25.51
2019-04-21T08:45:36.161Z,25.03
2019-04-21T08:46:31.573Z,24.86
2019-04-21T08:47:33.094Z,24.75
2019-04-21T08:48:28.611Z,24.70
2019-04-21T08:49:34.909Z,24.66
2019-04-21T08:50:34.523Z,24.34
2019-04-21T08:51:40.951Z,24.07
2019-04-21T08:52:42.705Z,24.07
2019-04-21T08:53:35.474Z,24.04
2019-04-21T08:54:39.004Z,24.21
2019-04-21T08:55:31.841Z,24.23
2019-04-21T08:56:34.550Z,24.37
2019-04-21T08:57:30.134Z,24.51
2019-04-21T08:58:34.109Z,24.71
2019-04-21T08:59:31.372Z,24.93
2019-04-21T09:00:33.510Z,24.84
2019-04-21T09:02:35.074Z,24.53
2019-04-21T09:03:29.905Z,24.31
2019-04-21T09:04:28.672Z,24.22
2019-04-21T09:05:31.315Z,23.97
2019-04-21T09:06:42.069Z,23.70
2019-04-21T09:07:32.061Z,23.70
2019-04-21T09:08:34.083Z,23.59
2019-04-21T09:09:28.767Z,23.54
2019-04-21T09:10:31.091Z,23.39
2019-04-21T09:11:30.777Z,23.34
2019-04-21T09:12:29.110Z,23.28
2019-04-21T09:13:32.466Z,23.21
2019-04-21T09:14:33.538Z,23.08
2019-04-21T09:15:31.131Z,22.89
2019-04-21T09:16:29.403Z,22.70
2019-04-21T09:17:26.263Z,22.73
2019-04-21T09:18:25.425Z,22.80
2019-04-21T09:19:38.665Z,23.04
2019-04-21T09:20:32.717Z,22.98
2019-04-21T09:21:31.716Z,22.92
2019-04-21T09:22:29.955Z,22.98
2019-04-21T09:23:26.073Z,23.11
2019-04-21T09:24:31.561Z,23.23
2019-04-21T09:25:38.331Z,23.23
2019-04-21T09:26:29.330Z,23.45
2019-04-21T09:27:27.030Z,23.31
2019-04-21T09:28:27.203Z,23.29
2019-04-21T09:29:21.721Z,23.28
2019-04-21T09:30:12.841Z,23.15
2019-04-21T09:31:12.119Z,23.13
2019-04-21T09:32:16.661Z,23.14
2019-04-21T09:33:11.648Z,23.10
2019-04-21T09:34:14.279Z,22.85
2019-04-21T09:35:14.864Z,22.89
2019-04-21T09:36:15.390Z,22.92
2019-04-21T09:37:24.410Z,23.10
2019-04-21T09:38:15.987Z,23.07
2019-04-21T09:39:15.137Z,23.06
2019-04-21T09:40:13.492Z,22.92
2019-04-21T09:41:14.260Z,23.06
2019-04-21T09:42:11.477Z,23.14
2019-04-21T09:43:13.288Z,23.36
2019-04-21T09:44:17.217Z,23.39
2019-04-21T09:45:12.521Z,23.37
2019-04-21T09:46:11.673Z,23.48
2019-04-21T09:47:11.027Z,23.39
2019-04-21T09:48:16.468Z,23.39
2019-04-21T09:49:14.752Z,23.44
2019-04-21T09:50:11.728Z,23.29
2019-04-21T09:51:11.061Z,23.21
2019-04-21T09:52:16.985Z,23.22
2019-04-21T09:53:22.152Z,23.37
2019-04-21T09:54:16.042Z,23.41
2019-04-21T09:55:15.978Z,23.31
2019-04-21T09:56:16.300Z,23.13
2019-04-21T09:57:25.731Z,22.99
2019-04-21T09:58:23.225Z,22.88
2019-04-21T09:59:18.042Z,22.83
2019-04-21T10:00:17.953Z,22.86
2019-04-21T10:01:19.743Z,22.89
2019-04-21T10:02:17.465Z,22.85
2019-04-21T10:03:14.008Z,22.92
2019-04-21T10:04:09.958Z,22.96
2019-04-21T10:05:10.051Z,23.07
2019-04-21T10:06:11.184Z,23.10
2019-04-21T10:07:21.824Z,23.06
2019-04-21T10:08:12.429Z,23.10
2019-04-21T10:09:14.177Z,23.04
2019-04-21T10:10:10.884Z,22.99
2019-04-21T10:11:09.923Z,23.01
2019-04-21T10:12:09.916Z,23.11
2019-04-21T10:13:10.645Z,23.15
2019-04-21T10:14:09.859Z,23.23
2019-04-21T10:15:10.663Z,23.63
2019-04-21T10:16:10.863Z,23.85
2019-04-21T10:17:10.883Z,24.19
2019-04-21T10:18:10.796Z,24.48
2019-04-21T10:19:11.012Z,24.60
2019-04-21T10:20:09.781Z,24.76
2019-04-21T10:21:09.791Z,24.91
2019-04-21T10:22:10.593Z,25.22
2019-04-21T10:23:09.756Z,25.19
2019-04-21T10:24:10.486Z,25.23
2019-04-21T10:25:10.478Z,25.22
2019-04-21T10:26:10.464Z,25.27
2019-04-21T10:27:12.251Z,25.14
2019-04-21T10:28:10.943Z,25.23
2019-04-21T10:29:17.195Z,24.99
2019-04-21T10:30:11.986Z,24.86
2019-04-21T10:31:10.925Z,25.06
2019-04-21T10:32:09.672Z,25.06
2019-04-21T10:33:10.398Z,25.04
2019-04-21T10:34:09.633Z,24.91
2019-04-21T10:35:10.790Z,24.70
2019-04-21T10:36:10.957Z,24.65
2019-04-21T10:37:09.613Z,24.58
2019-04-21T10:38:20.320Z,24.70
2019-04-21T10:39:11.523Z,24.70
2019-04-21T10:40:09.729Z,24.84
2019-04-21T10:41:09.637Z,24.62
2019-04-21T10:42:09.587Z,24.71
2019-04-21T10:43:12.093Z,24.76
2019-04-21T10:44:09.525Z,24.85
2019-04-21T10:45:10.735Z,25.00
2019-04-21T10:46:10.755Z,25.15
2019-04-21T10:47:10.848Z,25.40
2019-04-21T10:48:10.821Z,25.59
2019-04-21T10:49:10.444Z,25.73
2019-04-21T10:50:10.769Z,25.78
2019-04-21T10:51:10.656Z,25.73
2019-04-21T10:52:10.695Z,25.74
2019-04-21T10:53:09.427Z,25.86
2019-04-21T10:54:09.473Z,25.88
2019-04-21T10:55:26.337Z,26.04
2019-04-21T10:56:19.218Z,25.96
2019-04-21T10:57:10.495Z,25.90
2019-04-21T10:58:10.680Z,25.67
2019-04-21T10:59:10.134Z,25.77
2019-04-21T11:00:11.945Z,26.23
2019-04-21T11:01:10.587Z,26.61
2019-04-21T11:02:10.539Z,27.00
2019-04-21T11:03:10.865Z,27.01
2019-04-21T11:04:17.240Z,27.07
2019-04-21T11:05:10.309Z,27.23
2019-04-21T11:06:10.559Z,27.83
2019-04-21T11:07:15.502Z,28.50
2019-04-21T11:08:21.365Z,28.89
2019-04-21T11:09:10.792Z,29.62
2019-04-21T11:10:09.968Z,30.08
2019-04-21T11:11:10.053Z,30.59
2019-04-21T11:12:10.172Z,30.93
2019-04-21T11:13:10.399Z,31.29
2019-04-21T11:14:10.471Z,31.41
2019-04-21T11:15:09.388Z,32.08
2019-04-21T11:16:09.189Z,32.46
2019-04-21T11:17:10.192Z,32.57
2019-04-21T11:18:10.236Z,32.68
2019-04-21T11:19:09.536Z,33.10
2019-04-21T11:20:09.154Z,33.35
2019-04-21T11:21:09.281Z,33.98
2019-04-21T11:22:10.216Z,34.32
2019-04-21T11:23:10.186Z,34.41
2019-04-21T11:24:10.234Z,34.48
2019-04-21T11:25:09.219Z,34.94
2019-04-21T11:26:09.941Z,34.86
2019-04-21T11:27:09.095Z,34.53
2019-04-21T11:28:09.072Z,34.37
2019-04-21T11:29:09.089Z,34.79
2019-04-21T11:30:09.571Z,34.82
2019-04-21T11:31:09.141Z,35.13
2019-04-21T11:32:09.376Z,35.54
2019-04-21T11:33:09.145Z,35.10
2019-04-21T11:34:09.251Z,34.80
2019-04-21T11:35:09.426Z,35.21
2019-04-21T11:36:09.136Z,35.83
2019-04-21T11:37:10.206Z,36.23
2019-04-21T11:38:16.632Z,36.48
2019-04-21T11:39:22.276Z,36.63
2019-04-21T11:40:13.130Z,36.98
2019-04-21T11:41:09.946Z,37.03
2019-04-21T11:42:10.047Z,37.44
2019-04-21T11:43:09.591Z,38.08
2019-04-21T11:44:09.864Z,38.51
2019-04-21T11:45:10.397Z,38.97
2019-04-21T11:46:08.896Z,39.48
2019-04-21T11:47:10.154Z,39.04
2019-04-21T11:48:10.383Z,38.74
2019-04-21T11:49:09.161Z,38.54
2019-04-21T11:50:08.883Z,38.51
2019-04-21T11:51:09.047Z,38.07
2019-04-21T11:52:09.164Z,38.14
2019-04-21T11:53:08.833Z,37.91
2019-04-21T11:54:08.907Z,37.98
2019-04-21T11:55:09.019Z,38.02
2019-04-21T11:56:09.075Z,38.41
2019-04-21T11:57:17.545Z,38.63
2019-04-21T11:58:10.001Z,38.86
2019-04-21T11:59:10.013Z,38.70
2019-04-21T12:00:09.371Z,38.82
2019-04-21T12:01:09.669Z,38.89
2019-04-21T12:02:09.756Z,38.50
2019-04-21T12:03:09.205Z,38.16
2019-04-21T12:04:09.733Z,38.67
2019-04-21T12:05:09.741Z,38.82
2019-04-21T12:06:09.186Z,38.01
2019-04-21T12:07:09.169Z,37.80
2019-04-21T12:08:21.185Z,37.87
2019-04-21T12:09:10.486Z,38.28
2019-04-21T12:10:09.239Z,38.70
2019-04-21T12:11:09.428Z,38.51
2019-04-21T12:12:09.604Z,38.47
2019-04-21T12:13:09.954Z,38.26
2019-04-21T12:14:09.898Z,37.77
2019-04-21T12:15:10.814Z,37.42
2019-04-21T12:16:08.607Z,37.13
2019-04-21T12:17:09.765Z,36.49
2019-04-21T12:18:09.947Z,35.88
2019-04-21T12:19:09.200Z,36.03
2019-04-21T12:20:08.717Z,36.32
2019-04-21T12:21:09.362Z,36.22
2019-04-21T12:22:17.558Z,36.76
2019-04-21T12:23:09.541Z,37.12
2019-04-21T12:24:09.063Z,37.57
2019-04-21T12:25:09.307Z,38.18
2019-04-21T12:26:09.362Z,38.71
2019-04-21T12:27:09.733Z,39.06
2019-04-21T12:28:09.954Z,38.54
2019-04-21T12:29:08.481Z,38.73
2019-04-21T12:30:09.463Z,38.89
2019-04-21T12:31:09.614Z,38.45
2019-04-21T12:32:09.703Z,38.18
2019-04-21T12:33:09.793Z,38.16
2019-04-21T12:34:09.800Z,38.08
2019-04-21T12:35:08.433Z,37.51
2019-04-21T12:36:09.468Z,37.55
2019-04-21T12:37:08.807Z,37.49
2019-04-21T12:38:08.896Z,37.92
2019-04-21T12:39:09.096Z,37.58
2019-04-21T12:40:08.550Z,37.89
2019-04-21T12:41:08.741Z,38.22
2019-04-21T12:42:08.924Z,38.26
2019-04-21T12:43:08.519Z,38.32
2019-04-21T12:44:08.782Z,38.41
2019-04-21T12:45:09.668Z,38.30
2019-04-21T12:46:09.645Z,38.17
2019-04-21T12:47:08.333Z,37.99
2019-04-21T12:48:08.472Z,37.85
2019-04-21T12:49:09.649Z,37.54
2019-04-21T12:50:08.720Z,37.50
2019-04-21T12:51:08.286Z,37.17
2019-04-21T12:52:09.360Z,36.64
2019-04-21T12:53:09.544Z,36.09
2019-04-21T12:54:08.257Z,35.44
2019-04-21T12:55:09.335Z,35.14
2019-04-21T12:56:09.373Z,35.04
2019-04-21T12:57:09.583Z,34.37
2019-04-21T12:58:08.184Z,34.20
2019-04-21T12:59:08.190Z,33.66
2019-04-21T13:00:08.994Z,33.17
2019-04-21T13:01:09.287Z,33.01
2019-04-21T13:02:09.508Z,32.77
2019-04-21T13:03:08.206Z,32.72
2019-04-21T13:04:08.219Z,32.50
2019-04-21T13:05:09.428Z,32.24
2019-04-21T13:06:08.146Z,32.09
2019-04-21T13:07:08.118Z,31.98
2019-04-21T13:08:09.216Z,31.76
2019-04-21T13:09:11.211Z,31.78
2019-04-21T13:10:10.437Z,31.81
2019-04-21T13:11:09.498Z,31.81
2019-04-21T13:12:08.979Z,31.87
2019-04-21T13:13:08.140Z,31.78
2019-04-21T13:14:08.275Z,31.78
2019-04-21T13:15:08.715Z,31.59
2019-04-21T13:16:09.450Z,31.56
2019-04-21T13:17:08.019Z,31.08
2019-04-21T13:18:08.172Z,30.82
2019-04-21T13:19:09.213Z,30.56
2019-04-21T13:20:07.968Z,30.52
2019-04-21T13:21:07.956Z,30.53
2019-04-21T13:22:07.969Z,30.39
2019-04-21T13:23:08.147Z,30.24
2019-04-21T13:24:07.929Z,30.22
2019-04-21T13:25:07.933Z,30.05
2019-04-21T13:26:09.478Z,29.91
2019-04-21T13:27:09.464Z,29.95
2019-04-21T13:28:07.891Z,29.98
2019-04-21T13:29:08.086Z,29.92
2019-04-21T13:30:08.235Z,29.84
2019-04-21T13:31:08.602Z,29.77
2019-04-21T13:32:08.875Z,29.37
2019-04-21T13:33:09.062Z,29.21
2019-04-21T13:34:08.265Z,29.21
2019-04-21T13:35:08.516Z,29.17
2019-04-21T13:36:07.846Z,29.21
2019-04-21T13:37:07.852Z,29.31
2019-04-21T13:38:18.685Z,29.52
2019-04-21T13:39:37.978Z,29.61
2019-04-21T13:40:29.219Z,29.55
2019-04-21T13:41:22.637Z,29.70
2019-04-21T13:42:19.843Z,29.80
2019-04-21T13:43:10.753Z,29.92
2019-04-21T13:44:08.897Z,30.18
2019-04-21T13:45:08.207Z,30.39
2019-04-21T13:46:08.088Z,30.56
2019-04-21T13:47:07.721Z,30.62
2019-04-21T13:48:08.409Z,30.53
2019-04-21T13:49:07.669Z,30.21
2019-04-21T13:50:08.830Z,30.15
2019-04-21T13:51:09.009Z,30.30
2019-04-21T13:52:08.875Z,30.59
2019-04-21T13:53:08.913Z,30.65
2019-04-21T13:54:07.621Z,30.93
2019-04-21T13:55:07.810Z,31.08
2019-04-21T13:56:08.919Z,30.78
2019-04-21T13:57:08.367Z,30.90
2019-04-21T13:58:08.518Z,31.14
2019-04-21T13:59:08.492Z,31.33
2019-04-21T14:00:08.813Z,31.10
2019-04-21T14:01:07.840Z,31.15
2019-04-21T14:02:08.959Z,31.05
2019-04-21T14:03:07.537Z,31.24
2019-04-21T14:04:07.521Z,31.24
2019-04-21T14:05:10.087Z,30.99
2019-04-21T14:06:08.534Z,30.89
2019-04-21T14:07:08.215Z,31.04
2019-04-21T14:08:07.490Z,31.10
2019-04-21T14:09:07.465Z,31.07
2019-04-21T14:10:10.426Z,31.27
2019-04-21T14:11:07.454Z,31.15
2019-04-21T14:12:07.679Z,31.32
2019-04-21T14:13:08.619Z,31.14
2019-04-21T14:14:08.283Z,31.01